Time;durP1;ratioP1;P1;durP2;ratioP2;P2;SDS_P1;SDS_P2;PMS_P1;PMS_P2;Temp;Humidity;BMP_temperature;BMP_pressure;BME280_temperature;BME280_humidity;BME280_pressure;Samples;Min_cycle;Max_cycle;Signal;HPM_P1;HPM_P2
2021/03/14 00:00:12;;;;;;;2.10;1.42;;;6.50;99.90;;;;;;5062120;28;20192;-78
2021/03/14 00:02:38;;;;;;;3.45;1.40;;;6.40;99.90;;;;;;5045449;28;20611;-80
2021/03/14 00:05:05;;;;;;;2.77;1.10;;;6.40;99.90;;;;;;5059333;28;20191;-79
2021/03/14 00:07:30;;;;;;;1.20;1.00;;;6.40;99.90;;;;;;5059738;28;20172;-79
2021/03/14 00:09:56;;;;;;;1.20;1.10;;;6.40;99.90;;;;;;5057286;28;20208;-79
2021/03/14 00:12:21;;;;;;;2.20;1.20;;;6.40;99.90;;;;;;5057636;28;20668;-79
2021/03/14 00:14:47;;;;;;;1.93;1.43;;;6.40;99.90;;;;;;5056825;28;20169;-79
2021/03/14 00:17:13;;;;;;;5.60;1.20;;;6.50;99.90;;;;;;5055306;28;20180;-79
2021/03/14 00:19:40;;;;;;;2.13;1.07;;;6.50;99.90;;;;;;5055679;28;20201;-80
2021/03/14 00:22:06;;;;;;;1.52;1.15;;;6.50;99.90;;;;;;5056945;28;20192;-78
2021/03/14 00:24:32;;;;;;;1.77;1.60;;;6.40;99.90;;;;;;5057928;28;20165;-79
2021/03/14 00:26:57;;;;;;;1.97;1.43;;;6.40;99.90;;;;;;5038962;28;20177;-79
2021/03/14 00:29:23;;;;;;;1.67;1.57;;;6.40;99.90;;;;;;5056351;28;20238;-79
2021/03/14 00:31:48;;;;;;;1.40;1.20;;;6.40;99.90;;;;;;5056655;28;20177;-80
2021/03/14 00:34:14;;;;;;;2.43;1.30;;;6.40;99.90;;;;;;5039473;28;20180;-80
2021/03/14 00:36:39;;;;;;;1.87;1.67;;;6.40;99.90;;;;;;5056462;28;20172;-79
2021/03/14 00:39:05;;;;;;;1.57;1.03;;;6.40;99.90;;;;;;5055529;28;20200;-79
2021/03/14 00:41:31;;;;;;;3.20;1.57;;;6.50;99.90;;;;;;5055122;28;20205;-81
2021/03/14 00:43:57;;;;;;;2.33;1.80;;;6.40;99.90;;;;;;5056796;28;20157;-78
2021/03/14 00:46:22;;;;;;;1.90;1.42;;;6.50;99.90;;;;;;5059478;28;20176;-80
2021/03/14 00:48:48;;;;;;;2.07;1.87;;;6.40;99.90;;;;;;5059313;28;20581;-81
2021/03/14 00:51:13;;;;;;;1.50;1.33;;;6.40;99.90;;;;;;5060062;28;20216;-79
2021/03/14 00:53:39;;;;;;;1.57;1.10;;;6.50;99.90;;;;;;5043304;28;20173;-79
2021/03/14 00:56:05;;;;;;;3.17;1.57;;;6.40;99.90;;;;;;5060834;28;20192;-81
2021/03/14 00:58:31;;;;;;;3.28;1.17;;;6.40;99.90;;;;;;5061265;28;20169;-79
2021/03/14 01:00:56;;;;;;;2.20;1.47;;;6.30;99.90;;;;;;5042851;28;20196;-79
2021/03/14 01:03:22;;;;;;;2.40;1.20;;;6.30;99.90;;;;;;5025484;28;20243;-79
2021/03/14 01:05:47;;;;;;;3.30;1.90;;;6.40;99.90;;;;;;5058997;28;20252;-79
2021/03/14 01:08:17;;;;;;;1.57;1.43;;;6.30;99.90;;;;;;5060170;28;20173;-80
2021/03/14 01:10:44;;;;;;;2.15;1.52;;;6.40;99.90;;;;;;5065047;28;20318;-80
2021/03/14 01:13:09;;;;;;;3.92;1.50;;;6.40;99.90;;;;;;5061470;28;20173;-79
2021/03/14 01:15:35;;;;;;;1.77;1.50;;;6.30;99.90;;;;;;5041232;28;20235;-78
2021/03/14 01:18:01;;;;;;;2.60;2.00;;;6.40;99.90;;;;;;5041559;28;20208;-78
2021/03/14 01:20:26;;;;;;;5.77;1.83;;;6.40;99.90;;;;;;5058040;28;20234;-79
2021/03/14 01:22:52;;;;;;;4.03;1.57;;;6.40;99.90;;;;;;5058433;28;21012;-79
2021/03/14 01:25:18;;;;;;;2.07;1.87;;;6.50;99.90;;;;;;5058161;28;20177;-80
2021/03/14 01:27:47;;;;;;;1.58;1.42;;;6.40;99.90;;;;;;5057467;28;20173;-79
2021/03/14 01:30:17;;;;;;;1.55;1.45;;;6.50;99.90;;;;;;5059450;28;20247;-79
2021/03/14 01:32:47;;;;;;;3.28;1.45;;;6.40;99.90;;;;;;5059525;28;20183;-78
2021/03/14 01:35:13;;;;;;;2.30;1.45;;;6.40;99.90;;;;;;5057188;28;20543;-79
2021/03/14 01:37:39;;;;;;;5.40;1.65;;;6.50;99.90;;;;;;5040796;28;20189;-79
2021/03/14 01:40:06;;;;;;;1.73;1.60;;;6.40;99.90;;;;;;5057749;28;20733;-79
2021/03/14 01:42:34;;;;;;;2.45;1.77;;;6.50;99.90;;;;;;5062956;28;20230;-79
2021/03/14 01:45:01;;;;;;;3.20;1.25;;;6.40;99.90;;;;;;5059265;28;20172;-80
2021/03/14 01:47:39;;;;;;;1.55;1.40;;;6.40;99.90;;;;;;5059170;28;20166;-79
2021/03/14 01:50:06;;;;;;;3.05;1.42;;;6.40;99.90;;;;;;5058710;28;20199;-79
2021/03/14 01:52:33;;;;;;;1.40;1.30;;;6.40;99.90;;;;;;5057998;28;20187;-79
2021/03/14 01:54:59;;;;;;;3.03;1.98;;;6.30;99.90;;;;;;5057765;28;20177;-79
2021/03/14 01:57:26;;;;;;;1.30;1.20;;;6.30;99.90;;;;;;5057507;28;20173;-79
2021/03/14 01:59:51;;;;;;;4.13;1.95;;;6.30;99.90;;;;;;5041118;28;20201;-79
2021/03/14 02:02:20;;;;;;;2.10;1.80;;;6.40;99.90;;;;;;5041897;28;20204;-78
2021/03/14 02:04:46;;;;;;;3.85;1.88;;;6.40;99.90;;;;;;5057925;28;20177;-78
2021/03/14 02:07:13;;;;;;;2.80;1.67;;;6.40;99.90;;;;;;5057339;28;20177;-78
2021/03/14 02:09:39;;;;;;;6.88;2.78;;;6.30;99.90;;;;;;5039684;28;20197;-78
2021/03/14 02:12:07;;;;;;;2.43;1.60;;;6.30;99.90;;;;;;5055556;28;20188;-78
2021/03/14 02:14:35;;;;;;;4.82;2.17;;;6.30;99.90;;;;;;5057846;28;20211;-78
2021/03/14 02:17:02;;;;;;;2.20;1.35;;;6.30;99.90;;;;;;5058765;28;20176;-79
2021/03/14 02:19:31;;;;;;;2.78;1.88;;;6.40;99.90;;;;;;5057667;28;20200;-78
2021/03/14 02:21:59;;;;;;;1.77;1.67;;;6.40;99.90;;;;;;5060077;28;20246;-79
2021/03/14 02:24:28;;;;;;;4.55;2.58;;;6.40;99.90;;;;;;5042447;28;20718;-79
2021/03/14 02:26:59;;;;;;;2.05;1.73;;;6.40;99.90;;;;;;5061695;28;20165;-79
2021/03/14 02:29:25;;;;;;;4.18;1.60;;;6.40;99.90;;;;;;5043014;28;20207;-79
2021/03/14 02:31:53;;;;;;;2.53;1.80;;;6.40;99.90;;;;;;5060111;28;20201;-79
2021/03/14 02:34:41;;;;;;;2.30;1.73;;;6.40;99.90;;;;;;5041327;28;20461;-78
2021/03/14 02:37:08;;;;;;;3.22;2.20;;;6.40;99.90;;;;;;5056989;28;20255;-78
2021/03/14 02:39:35;;;;;;;2.05;1.63;;;6.40;99.90;;;;;;5059207;28;20216;-78
2021/03/14 02:42:05;;;;;;;3.17;1.75;;;6.40;99.90;;;;;;5042869;28;20223;-79
2021/03/14 02:44:34;;;;;;;2.03;1.75;;;6.40;99.90;;;;;;5058368;28;20179;-78
2021/03/14 02:47:06;;;;;;;2.35;2.10;;;6.40;99.90;;;;;;5059614;28;20183;-79
2021/03/14 02:49:34;;;;;;;2.45;2.25;;;6.30;99.90;;;;;;5058179;28;20191;-79
2021/03/14 02:52:02;;;;;;;2.08;1.88;;;6.30;99.90;;;;;;5056781;28;20193;-79
2021/03/14 02:54:36;;;;;;;9.57;3.67;;;6.20;99.90;;;;;;5056949;28;20173;-79
2021/03/14 02:57:05;;;;;;;2.10;1.90;;;6.20;99.90;;;;;;5055891;28;20173;-79
2021/03/14 02:59:34;;;;;;;6.57;2.00;;;6.10;99.90;;;;;;5055706;28;20287;-79
2021/03/14 03:02:02;;;;;;;1.98;1.85;;;6.10;99.90;;;;;;5055861;28;20288;-79
2021/03/14 03:04:30;;;;;;;3.35;3.05;;;6.10;99.90;;;;;;5056569;28;20165;-79
2021/03/14 03:06:58;;;;;;;2.95;1.83;;;6.10;99.90;;;;;;5056886;28;20168;-79
2021/03/14 03:09:26;;;;;;;3.50;2.55;;;6.10;99.90;;;;;;5055866;28;20189;-79
2021/03/14 03:11:54;;;;;;;5.53;2.40;;;6.10;99.90;;;;;;5058106;28;20235;-79
2021/03/14 03:14:23;;;;;;;2.83;1.88;;;6.10;99.90;;;;;;5056634;28;20188;-78
2021/03/14 03:16:51;;;;;;;7.28;2.95;;;6.00;99.90;;;;;;5040274;28;20678;-79
2021/03/14 03:19:19;;;;;;;2.63;2.40;;;6.00;99.90;;;;;;5063300;28;20193;-79
2021/03/14 03:21:46;;;;;;;3.80;3.03;;;6.00;99.90;;;;;;5041841;28;20253;-79
2021/03/14 03:24:12;;;;;;;2.75;2.55;;;6.00;99.90;;;;;;5056233;28;20244;-78
2021/03/14 03:26:43;;;;;;;5.03;1.98;;;6.00;99.90;;;;;;5056193;28;20180;-79
2021/03/14 03:29:10;;;;;;;3.53;2.40;;;6.00;99.90;;;;;;5065262;28;20184;-77
2021/03/14 03:31:36;;;;;;;5.47;3.00;;;6.00;99.90;;;;;;5047069;28;20172;-76
2021/03/14 03:34:03;;;;;;;3.92;2.78;;;6.00;99.90;;;;;;5061916;28;20168;-78
2021/03/14 03:36:28;;;;;;;6.97;3.10;;;5.90;99.90;;;;;;5056881;28;20177;-79
2021/03/14 03:38:54;;;;;;;2.13;1.93;;;5.90;99.90;;;;;;5057109;28;20177;-79
2021/03/14 03:41:20;;;;;;;5.40;2.77;;;5.70;99.90;;;;;;5056351;28;20218;-79
2021/03/14 03:43:49;;;;;;;2.63;2.40;;;5.70;99.90;;;;;;5038187;28;20165;-77
2021/03/14 03:46:15;;;;;;;2.28;1.75;;;5.60;99.90;;;;;;5055695;28;20178;-79
2021/03/14 03:48:49;;;;;;;3.78;1.83;;;5.60;99.90;;;;;;5055315;28;20169;-78
2021/03/14 03:51:20;;;;;;;1.70;1.58;;;5.60;99.90;;;;;;5036226;28;564860;-79
2021/03/14 03:53:46;;;;;;;2.45;1.88;;;5.50;99.90;;;;;;5056248;28;20172;-79
2021/03/14 03:56:12;;;;;;;1.97;1.63;;;5.50;99.90;;;;;;5055482;28;20505;-79
2021/03/14 03:58:40;;;;;;;2.63;1.55;;;5.50;99.90;;;;;;5057140;28;20172;-78
2021/03/14 04:01:09;;;;;;;2.00;1.85;;;5.40;99.90;;;;;;5039883;28;20536;-79
2021/03/14 04:03:39;;;;;;;2.00;1.80;;;5.40;99.90;;;;;;5056375;28;20196;-79
2021/03/14 04:06:06;;;;;;;3.05;2.28;;;5.40;99.90;;;;;;5039356;28;20172;-80
2021/03/14 04:08:33;;;;;;;1.90;1.80;;;5.40;99.90;;;;;;5056089;28;20219;-79
2021/03/14 04:11:03;;;;;;;1.30;1.13;;;5.40;99.90;;;;;;5057215;28;20200;-78
2021/03/14 04:13:49;;;;;;;;;;;;;;;;;;;;;
2021/03/14 04:16:16;;;;;;;1.40;1.30;;;5.40;99.90;;;;;;5057552;28;20255;-79
2021/03/14 04:18:45;;;;;;;1.27;1.08;;;5.40;99.90;;;;;;5056476;28;20173;-79
2021/03/14 04:21:14;;;;;;;1.23;1.13;;;5.40;99.90;;;;;;5059123;28;20184;-79
2021/03/14 04:23:43;;;;;;;1.45;1.00;;;5.40;99.90;;;;;;5045210;28;20172;-78
2021/03/14 04:26:10;;;;;;;1.45;1.30;;;5.30;99.90;;;;;;5061879;28;20199;-78
2021/03/14 04:28:36;;;;;;;2.03;1.17;;;5.30;99.90;;;;;;5061860;28;20602;-79
2021/03/14 04:31:03;;;;;;;1.30;0.98;;;5.20;99.90;;;;;;5062617;28;20555;-79
2021/03/14 04:33:30;;;;;;;0.98;0.82;;;5.20;99.90;;;;;;5063304;28;20180;-79
2021/03/14 04:35:59;;;;;;;1.20;0.98;;;5.20;99.90;;;;;;5063175;28;20176;-78
2021/03/14 04:38:28;;;;;;;1.08;0.82;;;5.30;99.90;;;;;;5063077;28;20183;-79
2021/03/14 04:41:10;;;;;;;1.25;1.00;;;5.30;99.90;;;;;;5060594;28;20287;-80
2021/03/14 04:43:45;;;;;;;1.08;0.80;;;5.20;99.90;;;;;;5058744;28;20181;-78
2021/03/14 04:46:17;;;;;;;0.90;0.77;;;5.10;99.90;;;;;;5060998;28;20267;-79
2021/03/14 04:48:43;;;;;;;1.60;1.02;;;5.10;99.90;;;;;;5060722;28;20173;-79
2021/03/14 04:51:09;;;;;;;1.20;0.87;;;5.10;99.90;;;;;;5061160;28;20188;-79
2021/03/14 04:53:35;;;;;;;0.97;0.87;;;5.10;99.90;;;;;;5061087;28;20407;-79
2021/03/14 04:56:01;;;;;;;0.90;0.77;;;5.00;99.90;;;;;;5060083;28;20411;-79
2021/03/14 04:58:28;;;;;;;1.13;1.00;;;5.10;99.90;;;;;;5059285;28;20211;-79
2021/03/14 05:00:54;;;;;;;1.10;0.88;;;5.10;99.90;;;;;;5058829;28;20292;-78
2021/03/14 05:03:23;;;;;;;2.00;1.30;;;5.10;99.90;;;;;;5043377;28;20227;-79
2021/03/14 05:05:52;;;;;;;1.88;1.20;;;5.10;99.90;;;;;;5060601;28;20177;-79
2021/03/14 05:08:21;;;;;;;1.60;1.27;;;5.10;99.90;;;;;;5060872;28;20229;-79
2021/03/14 05:10:48;;;;;;;1.10;1.00;;;5.00;99.90;;;;;;5043467;28;20197;-79
2021/03/14 05:13:14;;;;;;;1.73;0.95;;;5.00;99.90;;;;;;5066760;28;20196;-78
2021/03/14 05:15:44;;;;;;;1.30;0.98;;;5.00;99.90;;;;;;5077965;28;20240;-78
2021/03/14 05:18:11;;;;;;;1.42;1.02;;;5.00;99.90;;;;;;5061909;28;20171;-78
2021/03/14 05:20:38;;;;;;;1.20;1.10;;;5.00;99.90;;;;;;5062074;28;20176;-77
2021/03/14 05:23:04;;;;;;;1.10;0.77;;;5.10;99.90;;;;;;5076367;28;20196;-79
2021/03/14 05:25:30;;;;;;;1.17;0.80;;;5.10;99.90;;;;;;5061057;28;20173;-79
2021/03/14 05:27:57;;;;;;;1.00;0.75;;;5.00;99.90;;;;;;5064569;28;20570;-78
2021/03/14 05:30:25;;;;;;;1.27;1.17;;;5.00;99.90;;;;;;5044517;28;20288;-79
2021/03/14 05:32:53;;;;;;;2.13;1.20;;;5.00;99.90;;;;;;5057597;28;20184;-78
2021/03/14 05:35:19;;;;;;;0.90;0.80;;;4.90;99.90;;;;;;5058102;28;20181;-79
2021/03/14 05:37:46;;;;;;;1.65;1.00;;;4.90;99.90;;;;;;5060507;28;20172;-79
2021/03/14 05:40:12;;;;;;;1.40;0.95;;;4.90;99.90;;;;;;5059199;28;20685;-79
2021/03/14 05:42:39;;;;;;;1.27;0.90;;;4.80;99.90;;;;;;5042502;28;20303;-79
2021/03/14 05:45:07;;;;;;;1.13;1.02;;;4.90;99.90;;;;;;5060224;28;20169;-79
2021/03/14 05:47:33;;;;;;;1.10;1.00;;;4.90;99.90;;;;;;5058338;28;20169;-79
2021/03/14 05:49:58;;;;;;;0.90;0.80;;;4.90;99.90;;;;;;5058963;28;20201;-80
2021/03/14 05:52:24;;;;;;;1.23;1.10;;;4.90;99.90;;;;;;5059956;28;20220;-81
2021/03/14 05:54:51;;;;;;;1.80;1.15;;;4.90;99.90;;;;;;5059897;28;20199;-79
2021/03/14 05:57:18;;;;;;;1.25;0.93;;;4.90;99.90;;;;;;5060451;28;20175;-79
2021/03/14 05:59:52;;;;;;;1.20;1.08;;;4.90;99.90;;;;;;5044594;28;20271;-78
2021/03/14 06:02:20;;;;;;;2.30;1.17;;;4.90;99.90;;;;;;5065376;28;20197;-79
2021/03/14 06:04:47;;;;;;;1.10;1.00;;;4.90;99.90;;;;;;5061627;28;20179;-78
2021/03/14 06:07:13;;;;;;;2.85;1.10;;;4.90;99.90;;;;;;5059445;28;20168;-77
2021/03/14 06:09:40;;;;;;;1.40;1.30;;;4.90;99.90;;;;;;5058132;28;20223;-78
2021/03/14 06:12:11;;;;;;;1.10;0.75;;;4.90;99.90;;;;;;5056875;28;20211;-78
2021/03/14 06:14:37;;;;;;;1.35;1.10;;;4.90;99.90;;;;;;5057922;28;20207;-78
2021/03/14 06:17:03;;;;;;;0.90;0.73;;;4.90;99.90;;;;;;5059182;28;20191;-77
2021/03/14 06:19:31;;;;;;;1.17;1.07;;;4.90;99.90;;;;;;5068168;28;20674;-77
2021/03/14 06:22:25;;;;;;;1.80;0.80;;;4.90;99.90;;;;;;5072707;28;20203;-78
2021/03/14 06:24:51;;;;;;;1.15;0.73;;;4.80;99.90;;;;;;5040256;28;20181;-77
2021/03/14 06:27:37;;;;;;;2.47;1.20;;;4.80;99.90;;;;;;5058642;28;20172;-77
2021/03/14 06:30:09;;;;;;;0.95;0.80;;;4.90;99.90;;;;;;5056274;28;20188;-79
2021/03/14 06:32:36;;;;;;;1.58;1.23;;;4.90;99.90;;;;;;5057393;28;20169;-79
2021/03/14 06:35:36;;;;;;;1.92;1.52;;;4.90;99.90;;;;;;5053351;28;20226;-77
2021/03/14 06:38:28;;;;;;;1.60;1.08;;;4.90;99.90;;;;;;5069394;28;20208;-78
2021/03/14 06:41:11;;;;;;;1.40;1.30;;;5.00;99.90;;;;;;5057672;28;20482;-78
2021/03/14 06:43:43;;;;;;;2.05;1.27;;;4.90;99.90;;;;;;5038532;28;20191;-77
2021/03/14 06:46:24;;;;;;;1.60;1.25;;;4.90;99.90;;;;;;5056583;28;20235;-77
2021/03/14 06:49:07;;;;;;;1.30;1.17;;;5.00;99.90;;;;;;5056368;28;20172;-77
2021/03/14 06:51:35;;;;;;;1.10;1.00;;;5.00;99.90;;;;;;5057984;28;20207;-77
2021/03/14 06:54:21;;;;;;;1.20;1.10;;;5.10;99.90;;;;;;5066134;28;20504;-77
2021/03/14 06:57:15;;;;;;;1.08;0.98;;;5.10;99.90;;;;;;5076907;28;20273;-79
2021/03/14 06:59:55;;;;;;;1.40;1.27;;;5.10;99.90;;;;;;5066595;28;20284;-79
2021/03/14 07:02:31;;;;;;;1.42;1.33;;;5.10;99.90;;;;;;5060826;28;20650;-78
2021/03/14 07:05:02;;;;;;;1.63;1.52;;;5.10;99.90;;;;;;5064594;28;20175;-79
2021/03/14 07:07:41;;;;;;;1.70;1.42;;;5.10;99.90;;;;;;5065029;28;20187;-77
2021/03/14 07:10:36;;;;;;;1.20;1.10;;;5.20;99.90;;;;;;5065444;28;20189;-77
2021/03/14 07:13:03;;;;;;;1.23;1.13;;;7.30;99.90;;;;;;5060204;28;20172;-78
2021/03/14 07:15:29;;;;;;;1.45;1.15;;;7.30;99.90;;;;;;5069466;28;20243;-79
2021/03/14 07:17:56;;;;;;;1.63;0.97;;;7.10;99.90;;;;;;5082053;28;20199;-79
2021/03/14 07:20:25;;;;;;;1.83;1.70;;;7.10;99.90;;;;;;5081227;28;20215;-78
2021/03/14 07:23:09;;;;;;;3.00;2.25;;;7.20;99.90;;;;;;5081940;28;20196;-79
2021/03/14 07:25:40;;;;;;;2.95;1.63;;;7.40;99.90;;;;;;5064652;28;20580;-78
2021/03/14 07:28:06;;;;;;;1.73;1.63;;;7.20;99.90;;;;;;5057146;28;20185;-78
2021/03/14 07:30:32;;;;;;;1.10;1.00;;;7.40;99.90;;;;;;5070112;28;20193;-79
2021/03/14 07:32:58;;;;;;;1.30;1.10;;;7.60;99.90;;;;;;5077676;28;20679;-81
2021/03/14 07:35:24;;;;;;;1.10;1.00;;;7.70;99.90;;;;;;5062758;28;20263;-78
2021/03/14 07:37:52;;;;;;;1.77;1.40;;;7.40;99.90;;;;;;5065235;28;20168;-83
2021/03/14 07:40:20;;;;;;;2.38;1.90;;;7.00;99.90;;;;;;5061137;28;20205;-79
2021/03/14 07:42:46;;;;;;;1.65;1.42;;;6.30;99.90;;;;;;5058334;28;20353;-79
2021/03/14 07:45:14;;;;;;;1.53;1.10;;;5.90;99.90;;;;;;5060576;28;20196;-81
2021/03/14 07:47:41;;;;;;;1.92;1.27;;;5.70;99.90;;;;;;5063885;28;20442;-78
2021/03/14 07:50:10;;;;;;;2.25;1.77;;;5.70;99.90;;;;;;5061895;28;20204;-79
2021/03/14 07:52:38;;;;;;;3.20;1.60;;;5.50;99.90;;;;;;5040937;28;20196;-79
2021/03/14 07:55:08;;;;;;;1.70;1.20;;;5.50;99.90;;;;;;5057362;28;20192;-80
2021/03/14 07:57:34;;;;;;;1.55;1.35;;;5.50;99.90;;;;;;5039416;28;20181;-81
2021/03/14 08:00:28;;;;;;;2.00;1.40;;;5.70;99.90;;;;;;5059599;28;20210;-80
2021/03/14 08:02:58;;;;;;;1.55;1.05;;;5.60;99.90;;;;;;5067987;28;20421;-81
2021/03/14 08:05:42;;;;;;;1.48;1.20;;;5.60;99.90;;;;;;5065285;28;20198;-80
2021/03/14 08:08:24;;;;;;;1.67;1.15;;;5.50;99.90;;;;;;5056351;28;20177;-79
2021/03/14 08:10:50;;;;;;;1.80;1.60;;;5.40;99.90;;;;;;5069038;28;20191;-80
2021/03/14 08:13:29;;;;;;;2.20;1.40;;;5.40;99.90;;;;;;5078703;28;20201;-80
2021/03/14 08:16:04;;;;;;;2.40;1.30;;;5.50;99.90;;;;;;5077175;28;20168;-80
2021/03/14 08:18:52;;;;;;;1.85;1.50;;;5.60;99.90;;;;;;5076472;28;20653;-82
2021/03/14 08:21:24;;;;;;;1.30;1.20;;;5.60;99.90;;;;;;5077679;28;20596;-79
2021/03/14 08:23:52;;;;;;;2.22;1.65;;;5.50;99.90;;;;;;5077531;28;20175;-80
2021/03/14 08:26:22;;;;;;;3.63;1.63;;;5.50;99.90;;;;;;5076038;28;20184;-82
2021/03/14 08:29:02;;;;;;;1.73;1.20;;;5.60;99.90;;;;;;5066265;28;20249;-81
2021/03/14 08:31:48;;;;;;;1.90;1.70;;;5.60;99.90;;;;;;5077998;28;20527;-81
2021/03/14 08:34:18;;;;;;;2.00;1.67;;;5.60;99.90;;;;;;5047002;28;20273;-79
2021/03/14 08:36:44;;;;;;;1.85;1.30;;;5.60;99.90;;;;;;5068635;28;20177;-79
2021/03/14 08:39:32;;;;;;;3.33;1.83;;;5.60;99.90;;;;;;5078149;28;20214;-80
2021/03/14 08:42:02;;;;;;;3.50;1.33;;;5.80;99.90;;;;;;5062775;28;20204;-81
2021/03/14 08:44:38;;;;;;;4.15;2.58;;;5.70;99.90;;;;;;5062804;28;20204;-82
2021/03/14 08:47:08;;;;;;;1.38;1.27;;;5.80;99.90;;;;;;5065293;28;20788;-82
2021/03/14 08:49:36;;;;;;;2.10;1.40;;;5.80;99.90;;;;;;5053322;28;20196;-82
2021/03/14 08:52:03;;;;;;;2.45;2.25;;;5.80;99.90;;;;;;5058719;28;20197;-81
2021/03/14 08:54:33;;;;;;;1.83;1.30;;;5.90;99.90;;;;;;5072704;28;20693;-81
2021/03/14 08:57:03;;;;;;;6.50;1.50;;;5.90;99.90;;;;;;5077918;28;20187;-81
2021/03/14 08:59:28;;;;;;;1.80;1.45;;;5.90;99.90;;;;;;5080080;28;20721;-81
2021/03/14 09:01:59;;;;;;;2.20;1.57;;;6.00;99.90;;;;;;5067684;28;20208;-79
2021/03/14 09:04:34;;;;;;;6.50;1.77;;;6.00;99.90;;;;;;5061268;28;20173;-80
2021/03/14 09:07:10;;;;;;;1.83;1.42;;;5.90;99.90;;;;;;5070631;28;20228;-80
2021/03/14 09:09:37;;;;;;;3.13;1.90;;;5.80;99.90;;;;;;5075992;28;20194;-82
2021/03/14 09:12:19;;;;;;;1.63;1.08;;;6.00;99.90;;;;;;5066774;28;20179;-81
2021/03/14 09:14:49;;;;;;;1.48;1.20;;;6.10;99.90;;;;;;5065163;28;20450;-81
2021/03/14 09:17:17;;;;;;;7.03;1.95;;;5.60;99.90;;;;;;5047225;28;20208;-80
2021/03/14 09:19:54;;;;;;;1.23;1.05;;;5.50;99.90;;;;;;5070157;28;20196;-78
2021/03/14 09:22:26;;;;;;;2.85;1.75;;;5.70;99.90;;;;;;5081733;28;20226;-81
2021/03/14 09:24:57;;;;;;;4.22;1.55;;;5.90;99.90;;;;;;5082009;28;20179;-81
2021/03/14 09:27:29;;;;;;;1.95;1.65;;;6.10;99.90;;;;;;5076034;28;20174;-79
2021/03/14 09:29:59;;;;;;;2.70;1.90;;;6.00;99.90;;;;;;5060483;28;20242;-80
2021/03/14 09:32:50;;;;;;;2.05;1.60;;;6.30;99.90;;;;;;5066499;28;20168;-81
2021/03/14 09:35:25;;;;;;;1.10;0.90;;;6.10;99.90;;;;;;5081658;28;20164;-79
2021/03/14 09:38:11;;;;;;;1.90;0.95;;;6.00;99.90;;;;;;5062536;28;20187;-79
2021/03/14 09:40:46;;;;;;;1.75;1.13;;;6.40;99.90;;;;;;5060046;28;20203;-80
2021/03/14 09:43:23;;;;;;;3.72;1.15;;;6.50;99.90;;;;;;5044553;28;20199;-80
2021/03/14 09:45:58;;;;;;;2.58;1.23;;;6.40;99.90;;;;;;5061290;28;20631;-79
2021/03/14 09:48:29;;;;;;;2.70;1.55;;;6.40;99.90;;;;;;5079276;28;20183;-79
2021/03/14 09:51:01;;;;;;;1.75;1.65;;;6.70;99.90;;;;;;5081859;28;20184;-80
2021/03/14 09:53:35;;;;;;;2.30;1.70;;;6.80;99.90;;;;;;5060029;28;20181;-79
2021/03/14 09:56:12;;;;;;;2.55;1.60;;;6.80;99.90;;;;;;5061347;28;20179;-80
2021/03/14 09:58:41;;;;;;;2.80;1.35;;;6.90;99.90;;;;;;5067722;28;20635;-80
2021/03/14 10:01:09;;;;;;;14.80;8.30;;;6.90;99.90;;;;;;5082908;28;20179;-79
2021/03/14 10:03:35;;;;;;;9.70;5.57;;;6.80;99.90;;;;;;5064473;28;20201;-78
2021/03/14 10:06:03;;;;;;;3.53;2.40;;;6.90;99.90;;;;;;5067255;28;20187;-79
2021/03/14 10:08:37;;;;;;;1.50;1.40;;;7.10;99.90;;;;;;5074402;28;20405;-80
2021/03/14 10:11:13;;;;;;;1.90;1.00;;;6.90;99.90;;;;;;5084098;28;20195;-78
2021/03/14 10:13:42;;;;;;;3.05;1.58;;;6.80;99.90;;;;;;5063804;28;20203;-79
2021/03/14 10:16:13;;;;;;;7.07;1.45;;;6.50;99.90;;;;;;5061312;28;20243;-79
2021/03/14 10:18:39;;;;;;;2.45;1.75;;;6.50;99.90;;;;;;5075466;28;20177;-80
2021/03/14 10:21:23;;;;;;;4.30;2.25;;;6.50;99.90;;;;;;5076646;28;20654;-78
2021/03/14 10:23:51;;;;;;;3.95;2.20;;;6.40;99.90;;;;;;5072047;28;20184;-79
2021/03/14 10:26:17;;;;;;;3.25;1.77;;;6.50;99.90;;;;;;5065643;28;20299;-80
2021/03/14 10:28:46;;;;;;;2.13;1.90;;;6.60;99.90;;;;;;5046404;28;20183;-80
2021/03/14 10:31:13;;;;;;;4.63;2.25;;;6.60;99.90;;;;;;5064925;28;20169;-80
2021/03/14 10:33:42;;;;;;;3.92;2.08;;;6.70;99.90;;;;;;5068000;28;20214;-80
2021/03/14 10:36:09;;;;;;;4.50;2.10;;;6.80;99.90;;;;;;5071473;28;20227;-79
2021/03/14 10:38:40;;;;;;;1.65;1.55;;;7.00;99.90;;;;;;5078739;28;20187;-80
2021/03/14 10:41:18;;;;;;;2.67;2.03;;;7.10;99.90;;;;;;5068820;28;20191;-80
2021/03/14 10:43:52;;;;;;;4.30;2.33;;;7.00;99.90;;;;;;5051736;28;20176;-79
2021/03/14 10:46:39;;;;;;;2.75;2.03;;;7.10;99.90;;;;;;5075632;28;20206;-80
2021/03/14 10:49:08;;;;;;;2.50;1.40;;;7.10;99.90;;;;;;5083972;28;20245;-81
2021/03/14 10:51:36;;;;;;;3.40;1.90;;;7.10;99.90;;;;;;5071077;28;20192;-80
2021/03/14 10:54:08;;;;;;;3.72;2.05;;;7.20;99.90;;;;;;5061298;28;20714;-80
2021/03/14 10:56:46;;;;;;;2.58;1.70;;;7.30;99.90;;;;;;5061812;28;20173;-82
2021/03/14 10:59:26;;;;;;;2.33;2.08;;;7.10;99.90;;;;;;5060462;28;20755;-79
2021/03/14 11:01:58;;;;;;;8.02;2.78;;;7.20;99.90;;;;;;5074085;28;20204;-81
2021/03/14 11:04:29;;;;;;;5.70;2.55;;;7.20;99.90;;;;;;5073430;28;20165;-81
2021/03/14 11:06:55;;;;;;;3.00;1.85;;;7.20;99.90;;;;;;5060504;28;20169;-80
2021/03/14 11:09:26;;;;;;;6.72;3.10;;;7.20;99.90;;;;;;5066614;28;20195;-80
2021/03/14 11:11:52;;;;;;;3.67;2.17;;;7.40;99.90;;;;;;5086824;28;20590;-79
2021/03/14 11:14:47;;;;;;;4.22;2.05;;;7.30;99.90;;;;;;5084896;28;20237;-79
2021/03/14 11:17:15;;;;;;;5.43;2.80;;;7.40;99.90;;;;;;5081948;28;20199;-79
2021/03/14 11:19:47;;;;;;;7.07;4.65;;;7.40;99.90;;;;;;5090484;28;20203;-80
2021/03/14 11:22:14;;;;;;;6.38;2.28;;;7.60;99.90;;;;;;5069732;28;20195;-81
2021/03/14 11:24:44;;;;;;;4.45;2.42;;;7.50;99.90;;;;;;5079522;28;20200;-81
2021/03/14 11:27:10;;;;;;;7.22;2.28;;;7.40;99.90;;;;;;5072687;28;20230;-80
2021/03/14 11:29:37;;;;;;;5.72;2.03;;;7.60;99.90;;;;;;5076085;28;20185;-81
2021/03/14 11:32:10;;;;;;;4.05;2.17;;;7.60;99.90;;;;;;5075056;28;20169;-80
2021/03/14 11:34:40;;;;;;;4.68;1.95;;;7.60;99.90;;;;;;5063960;28;20244;-81
2021/03/14 11:37:07;;;;;;;8.05;2.40;;;7.60;99.90;;;;;;5078782;28;20179;-80
2021/03/14 11:39:32;;;;;;;5.03;2.72;;;7.80;99.90;;;;;;5080283;28;20195;-80
2021/03/14 11:41:58;;;;;;;3.57;2.73;;;7.80;99.90;;;;;;5066905;28;20205;-81
2021/03/14 11:44:23;;;;;;;4.03;2.43;;;7.80;99.90;;;;;;5069128;28;20191;-80
2021/03/14 11:46:49;;;;;;;4.00;2.97;;;8.00;99.90;;;;;;5073755;28;20194;-80
2021/03/14 11:49:15;;;;;;;3.40;2.40;;;8.20;99.90;;;;;;5061936;28;20211;-78
2021/03/14 11:51:40;;;;;;;2.80;2.27;;;8.40;99.90;;;;;;5059319;28;20604;-78
2021/03/14 11:54:06;;;;;;;6.23;2.20;;;8.60;99.90;;;;;;5078041;28;20187;-79
2021/03/14 11:56:32;;;;;;;2.47;1.90;;;8.40;99.90;;;;;;5081445;28;20180;-78
2021/03/14 11:58:58;;;;;;;3.43;2.00;;;8.40;99.90;;;;;;5076713;28;20589;-78
2021/03/14 12:01:27;;;;;;;6.00;3.40;;;8.30;99.90;;;;;;5072380;28;20172;-78
2021/03/14 12:03:53;;;;;;;3.10;2.15;;;8.40;99.90;;;;;;5067199;28;20176;-79
2021/03/14 12:06:20;;;;;;;3.90;2.43;;;8.60;99.90;;;;;;5072503;28;20250;-79
2021/03/14 12:08:46;;;;;;;3.70;2.75;;;8.90;99.90;;;;;;5040115;28;20208;-79
2021/03/14 12:11:12;;;;;;;3.40;2.03;;;9.20;99.90;;;;;;5045120;28;20207;-78
2021/03/14 12:13:38;;;;;;;8.95;2.40;;;9.30;99.90;;;;;;5076959;28;20184;-77
2021/03/14 12:16:04;;;;;;;2.83;2.23;;;9.30;99.90;;;;;;5081001;28;20184;-78
2021/03/14 12:18:31;;;;;;;6.82;2.03;;;9.20;99.90;;;;;;5058281;28;20203;-79
2021/03/14 12:20:57;;;;;;;3.15;2.08;;;9.00;99.90;;;;;;5059251;28;20192;-77
2021/03/14 12:23:23;;;;;;;3.33;2.60;;;8.90;99.90;;;;;;5077982;28;20203;-79
2021/03/14 12:25:49;;;;;;;3.63;1.63;;;9.00;99.90;;;;;;5065252;28;20592;-78
2021/03/14 12:28:33;;;;;;;8.63;2.95;;;9.00;99.90;;;;;;5063604;28;20195;-78
2021/03/14 12:30:59;;;;;;;2.30;2.10;;;8.80;99.90;;;;;;5075003;28;20264;-79
2021/03/14 12:33:26;;;;;;;7.38;2.22;;;8.80;99.90;;;;;;5071956;28;20188;-79
2021/03/14 12:35:51;;;;;;;5.00;2.65;;;8.80;99.90;;;;;;5077365;28;20180;-80
2021/03/14 12:38:24;;;;;;;4.20;2.07;;;8.80;99.90;;;;;;5061881;28;20179;-79
2021/03/14 12:40:49;;;;;;;1.88;1.75;;;8.50;99.90;;;;;;5070665;28;20207;-78
2021/03/14 12:43:20;;;;;;;6.43;2.17;;;8.40;99.90;;;;;;5082346;28;20204;-80
2021/03/14 12:45:49;;;;;;;6.72;2.70;;;8.30;99.90;;;;;;5080947;28;20160;-79
2021/03/14 12:48:16;;;;;;;2.92;1.98;;;8.30;99.90;;;;;;5080931;28;20171;-79
2021/03/14 12:50:43;;;;;;;3.33;1.90;;;8.30;99.90;;;;;;5079360;28;20188;-81
2021/03/14 12:53:08;;;;;;;3.10;2.20;;;8.40;99.90;;;;;;5080803;28;20192;-79
2021/03/14 12:55:34;;;;;;;8.60;2.33;;;8.40;99.90;;;;;;5087252;28;20187;-79
2021/03/14 12:57:59;;;;;;;5.90;2.20;;;8.50;99.90;;;;;;5072944;28;20195;-79
2021/03/14 13:00:25;;;;;;;3.50;1.80;;;8.70;99.90;;;;;;5079189;28;20291;-78
2021/03/14 13:02:51;;;;;;;3.47;1.60;;;8.50;99.90;;;;;;5088892;28;20235;-78
2021/03/14 13:05:17;;;;;;;2.38;1.85;;;8.30;99.90;;;;;;5079012;28;20207;-79
2021/03/14 13:07:47;;;;;;;4.73;2.40;;;8.20;99.90;;;;;;5084645;28;20171;-78
2021/03/14 13:10:13;;;;;;;3.22;2.40;;;8.40;99.90;;;;;;5085022;28;20207;-79